Time;durP1;ratioP1;P1;durP2;ratioP2;P2;SDS_P1;SDS_P2;PMS_P1;PMS_P2;Temp;Humidity;BMP_temperature;BMP_pressure;BME280_temperature;BME280_humidity;BME280_pressure;Samples;Min_cycle;Max_cycle;Signal;HPM_P1;HPM_P2
2021/07/08 00:00:41;;;;;;;4.60;3.03;;;17.00;97.20;;;;;;4808416;29;20035;-79
2021/07/08 00:03:08;;;;;;;5.80;3.08;;;17.00;97.30;;;;;;4808618;29;20479;-78
2021/07/08 00:05:40;;;;;;;4.28;2.95;;;17.00;97.30;;;;;;4776250;29;20055;-78
2021/07/08 00:08:07;;;;;;;4.20;2.83;;;17.00;97.30;;;;;;4791396;29;20058;-78
2021/07/08 00:10:38;;;;;;;5.10;2.67;;;17.00;97.30;;;;;;4778226;29;20720;-78
2021/07/08 00:13:05;;;;;;;4.47;3.60;;;17.00;97.40;;;;;;4789840;29;20784;-78
2021/07/08 00:15:32;;;;;;;4.22;2.90;;;17.00;97.40;;;;;;4792424;29;20062;-78
2021/07/08 00:17:59;;;;;;;4.00;2.70;;;16.90;97.40;;;;;;4808467;29;20046;-78
2021/07/08 00:20:28;;;;;;;5.30;2.95;;;16.90;97.50;;;;;;4775636;29;20054;-78
2021/07/08 00:22:54;;;;;;;6.22;3.28;;;16.90;97.60;;;;;;4788569;29;20053;-78
2021/07/08 00:25:26;;;;;;;4.00;2.88;;;16.90;97.60;;;;;;4741742;29;20414;-78
2021/07/08 00:27:52;;;;;;;5.22;2.70;;;16.80;97.60;;;;;;4791556;29;20487;-78
2021/07/08 00:30:19;;;;;;;4.00;2.30;;;16.80;97.50;;;;;;4807076;29;20061;-78
2021/07/08 00:32:49;;;;;;;4.78;2.58;;;16.80;97.50;;;;;;4776878;29;20050;-78
2021/07/08 00:35:16;;;;;;;4.30;3.05;;;16.80;97.60;;;;;;4786860;29;20038;-78
2021/07/08 00:37:42;;;;;;;3.53;2.75;;;16.80;97.60;;;;;;4767907;29;20054;-78
2021/07/08 00:40:12;;;;;;;4.00;2.88;;;16.80;97.60;;;;;;4784255;29;20333;-78
2021/07/08 00:42:40;;;;;;;4.95;2.88;;;16.90;97.60;;;;;;4772418;29;20051;-78
2021/07/08 00:45:09;;;;;;;4.43;2.63;;;16.90;97.60;;;;;;4791949;29;20055;-78
2021/07/08 00:47:35;;;;;;;4.15;2.38;;;16.90;97.50;;;;;;4807308;29;20042;-78
2021/07/08 00:50:04;;;;;;;3.95;2.33;;;16.90;97.50;;;;;;4776916;29;20411;-78
2021/07/08 00:52:31;;;;;;;4.78;2.85;;;16.90;97.50;;;;;;4800181;29;20042;-78
2021/07/08 00:54:57;;;;;;;3.70;2.60;;;16.90;97.50;;;;;;4802341;29;20051;-78
2021/07/08 00:57:24;;;;;;;4.68;2.17;;;16.90;97.60;;;;;;4772270;29;20069;-78
2021/07/08 00:59:54;;;;;;;3.72;2.65;;;16.90;97.60;;;;;;4754714;29;20046;-78
2021/07/08 01:02:22;;;;;;;3.30;2.30;;;16.90;97.60;;;;;;4801789;29;20479;-78
2021/07/08 01:04:50;;;;;;;3.28;2.08;;;16.90;97.50;;;;;;4770474;29;20077;-78
2021/07/08 01:07:19;;;;;;;4.75;2.53;;;17.00;97.50;;;;;;4803432;29;20039;-78
2021/07/08 01:09:47;;;;;;;4.25;2.17;;;17.00;97.50;;;;;;4786650;29;20046;-78
2021/07/08 01:12:14;;;;;;;5.43;2.53;;;17.10;97.40;;;;;;4772576;29;20069;-78
2021/07/08 01:14:40;;;;;;;4.50;2.38;;;17.10;97.40;;;;;;4761314;29;20058;-78
2021/07/08 01:17:09;;;;;;;7.05;2.58;;;17.10;97.50;;;;;;4806072;29;20038;-78
2021/07/08 01:19:37;;;;;;;3.72;2.63;;;17.20;97.50;;;;;;4788633;29;20394;-78
2021/07/08 01:22:04;;;;;;;5.28;2.53;;;17.10;97.50;;;;;;4790030;29;20820;-78
2021/07/08 01:24:32;;;;;;;3.75;2.33;;;17.10;97.50;;;;;;4804034;29;20149;-78
2021/07/08 01:26:59;;;;;;;5.50;2.80;;;17.10;97.60;;;;;;4772734;29;20061;-78
2021/07/08 01:29:27;;;;;;;5.38;2.53;;;17.10;97.70;;;;;;4794143;29;20038;-78
2021/07/08 01:31:54;;;;;;;4.72;2.28;;;17.10;97.80;;;;;;4777314;29;20066;-78
2021/07/08 01:34:20;;;;;;;4.30;2.42;;;17.00;97.80;;;;;;4787480;29;20053;-78
2021/07/08 01:36:46;;;;;;;4.32;2.67;;;17.00;97.90;;;;;;4787111;29;20047;-78
2021/07/08 01:39:13;;;;;;;5.10;2.80;;;17.00;98.00;;;;;;4787420;29;20050;-78
2021/07/08 01:41:40;;;;;;;5.38;3.38;;;17.00;98.10;;;;;;4766879;29;20042;-78
2021/07/08 01:44:06;;;;;;;3.95;3.40;;;17.00;98.20;;;;;;4805918;29;20455;-78
2021/07/08 01:46:33;;;;;;;4.70;3.15;;;17.00;98.30;;;;;;4806530;29;20126;-78
2021/07/08 01:48:59;;;;;;;4.30;3.65;;;17.00;98.30;;;;;;4787882;29;20053;-77
2021/07/08 01:51:30;;;;;;;5.20;3.03;;;17.00;98.40;;;;;;4757330;29;20059;-78
2021/07/08 01:53:58;;;;;;;7.57;3.78;;;17.00;98.40;;;;;;4790535;29;20047;-78
2021/07/08 01:56:25;;;;;;;3.85;2.65;;;17.00;98.50;;;;;;4773747;29;20556;-78
2021/07/08 01:58:52;;;;;;;4.57;3.00;;;17.00;98.50;;;;;;4781213;29;20053;-78
2021/07/08 02:01:22;;;;;;;3.08;2.40;;;17.10;98.60;;;;;;4801426;29;20038;-77
2021/07/08 02:03:50;;;;;;;4.80;2.70;;;17.10;98.60;;;;;;4787591;29;20053;-77
2021/07/08 02:06:17;;;;;;;4.68;3.22;;;17.10;98.70;;;;;;4801744;29;20042;-78
2021/07/08 02:08:44;;;;;;;5.93;3.33;;;17.10;98.80;;;;;;4789224;29;20043;-78
2021/07/08 02:11:11;;;;;;;5.22;3.38;;;17.10;98.80;;;;;;4781514;29;20051;-77
2021/07/08 02:13:38;;;;;;;4.60;3.88;;;17.10;98.80;;;;;;4787006;29;20065;-78
2021/07/08 02:16:06;;;;;;;5.68;3.60;;;17.10;98.80;;;;;;4805574;29;20058;-78
2021/07/08 02:18:34;;;;;;;3.90;3.38;;;17.10;98.80;;;;;;4789535;29;20031;-77
2021/07/08 02:21:00;;;;;;;5.07;3.47;;;17.10;98.90;;;;;;4801937;29;20043;-77
2021/07/08 02:23:27;;;;;;;6.20;3.30;;;17.10;98.90;;;;;;4784571;29;20058;-77
2021/07/08 02:25:54;;;;;;;5.18;3.80;;;17.10;98.90;;;;;;4785661;29;20053;-77
2021/07/08 02:28:20;;;;;;;3.42;3.13;;;17.10;99.00;;;;;;4772572;29;20756;-77
2021/07/08 02:30:47;;;;;;;5.68;3.65;;;17.00;99.00;;;;;;4789078;29;20406;-77
2021/07/08 02:33:13;;;;;;;5.15;4.35;;;17.00;99.10;;;;;;4789188;29;20050;-77
2021/07/08 02:35:40;;;;;;;6.25;3.53;;;16.90;99.20;;;;;;4773368;29;20053;-77
2021/07/08 02:38:06;;;;;;;6.15;3.65;;;16.90;99.40;;;;;;4804140;29;20403;-77
2021/07/08 02:40:38;;;;;;;5.03;3.50;;;16.80;99.50;;;;;;4802955;29;20038;-77
2021/07/08 02:43:05;;;;;;;4.28;3.13;;;16.80;99.70;;;;;;4791085;29;20031;-77
2021/07/08 02:45:33;;;;;;;4.65;3.42;;;16.70;99.80;;;;;;4802275;29;20061;-77
2021/07/08 02:48:03;;;;;;;4.60;3.33;;;16.70;99.80;;;;;;4806192;29;20047;-79
2021/07/08 02:50:31;;;;;;;5.18;3.28;;;16.60;99.80;;;;;;4802198;29;20057;-77
2021/07/08 02:52:58;;;;;;;4.25;2.95;;;16.60;99.90;;;;;;4785059;29;20047;-77
2021/07/08 02:55:24;;;;;;;4.72;3.75;;;16.50;99.90;;;;;;4804662;29;20055;-77
2021/07/08 02:57:51;;;;;;;4.97;3.40;;;16.50;99.90;;;;;;4788514;29;20046;-77
2021/07/08 03:00:23;;;;;;;3.85;3.08;;;16.40;99.90;;;;;;4781619;29;20066;-77
2021/07/08 03:02:50;;;;;;;5.22;3.53;;;16.40;99.90;;;;;;4802887;29;20501;-77
2021/07/08 03:05:17;;;;;;;3.53;3.13;;;16.40;99.90;;;;;;4790104;29;20057;-77
2021/07/08 03:07:44;;;;;;;5.38;3.88;;;16.40;99.90;;;;;;4793432;29;20034;-77
2021/07/08 03:10:14;;;;;;;5.38;3.47;;;16.40;99.90;;;;;;4784645;29;20065;-77
2021/07/08 03:12:41;;;;;;;5.82;3.70;;;16.50;99.90;;;;;;4808254;29;20038;-77
2021/07/08 03:15:09;;;;;;;9.10;4.32;;;16.50;99.90;;;;;;4789815;29;20058;-77
2021/07/08 03:17:36;;;;;;;6.22;4.15;;;16.60;99.90;;;;;;4792566;29;20808;-77
2021/07/08 03:20:06;;;;;;;5.80;3.90;;;16.60;99.90;;;;;;4791667;29;20050;-76
2021/07/08 03:22:33;;;;;;;5.18;3.80;;;16.60;99.90;;;;;;4789042;29;20050;-77
2021/07/08 03:24:59;;;;;;;4.78;4.03;;;16.70;99.90;;;;;;4775665;29;20419;-76
2021/07/08 03:27:25;;;;;;;4.60;3.38;;;16.70;99.90;;;;;;4775090;29;20051;-76
2021/07/08 03:29:52;;;;;;;5.25;3.97;;;16.70;99.90;;;;;;4761631;29;20054;-77
2021/07/08 03:32:18;;;;;;;6.22;4.10;;;16.80;99.90;;;;;;4773064;29;20047;-77
2021/07/08 03:34:45;;;;;;;6.78;4.82;;;16.80;99.90;;;;;;4808309;29;20038;-77
2021/07/08 03:37:11;;;;;;;6.43;4.18;;;16.90;99.90;;;;;;4774976;29;20066;-77
2021/07/08 03:39:37;;;;;;;6.32;4.07;;;16.90;99.90;;;;;;4776172;29;20046;-77
2021/07/08 03:42:04;;;;;;;5.63;3.92;;;16.90;99.90;;;;;;4773971;29;20069;-77
2021/07/08 03:44:30;;;;;;;4.20;3.50;;;17.00;99.90;;;;;;4807281;29;20046;-79
2021/07/08 03:46:57;;;;;;;6.22;3.72;;;17.00;99.90;;;;;;4775051;29;20054;-79
2021/07/08 03:49:23;;;;;;;6.10;3.70;;;17.00;99.90;;;;;;4791449;29;20038;-79
2021/07/08 03:51:50;;;;;;;5.05;3.40;;;17.00;99.90;;;;;;4773012;29;20530;-78
2021/07/08 03:54:16;;;;;;;5.60;3.50;;;17.10;99.90;;;;;;4806577;29;20068;-79
2021/07/08 03:56:43;;;;;;;5.68;3.70;;;17.10;99.90;;;;;;4804014;29;20061;-79
2021/07/08 03:59:09;;;;;;;5.22;3.83;;;17.20;99.90;;;;;;4787717;29;20053;-79
2021/07/08 04:01:35;;;;;;;6.20;3.55;;;17.20;99.90;;;;;;4790044;29;20043;-79
2021/07/08 04:04:02;;;;;;;6.80;3.80;;;17.30;99.90;;;;;;4792538;29;20414;-79
2021/07/08 04:06:28;;;;;;;3.80;3.25;;;17.30;99.90;;;;;;4788709;29;20050;-79
2021/07/08 04:08:55;;;;;;;5.53;3.80;;;17.30;99.90;;;;;;4801551;29;20406;-78
2021/07/08 04:11:21;;;;;;;4.30;3.17;;;17.40;99.90;;;;;;4791309;29;20035;-78
2021/07/08 04:13:48;;;;;;;6.40;3.15;;;17.40;99.90;;;;;;4790238;29;20476;-78
2021/07/08 04:16:14;;;;;;;4.70;3.75;;;17.40;99.90;;;;;;4740960;29;20054;-78
2021/07/08 04:18:41;;;;;;;6.55;3.90;;;17.50;99.90;;;;;;4785973;29;20070;-79
2021/07/08 04:21:07;;;;;;;6.35;3.72;;;17.50;99.80;;;;;;4753969;29;20070;-78
2021/07/08 04:23:34;;;;;;;3.80;2.97;;;17.50;99.80;;;;;;4787384;29;20054;-79
2021/07/08 04:26:01;;;;;;;5.53;3.75;;;17.50;99.80;;;;;;4804614;29;20065;-79
2021/07/08 04:28:29;;;;;;;4.53;3.75;;;17.50;99.90;;;;;;4804330;29;20050;-79
2021/07/08 04:30:55;;;;;;;5.60;4.32;;;17.50;99.90;;;;;;4772111;29;20043;-77
2021/07/08 04:33:22;;;;;;;5.50;3.42;;;17.40;99.90;;;;;;4802696;29;20051;-77
2021/07/08 04:35:49;;;;;;;4.72;3.97;;;17.40;99.90;;;;;;4788073;29;20059;-77
2021/07/08 04:38:16;;;;;;;4.80;4.10;;;17.50;99.90;;;;;;4790895;29;20050;-77
2021/07/08 04:40:45;;;;;;;3.80;3.47;;;17.50;99.90;;;;;;4757759;29;20604;-77
2021/07/08 04:43:13;;;;;;;4.25;3.83;;;17.50;99.90;;;;;;4785535;29;20031;-77
2021/07/08 04:45:40;;;;;;;5.05;3.58;;;17.40;99.90;;;;;;4789033;29;20077;-77
2021/07/08 04:48:07;;;;;;;6.55;4.28;;;17.40;99.90;;;;;;4802334;29;20502;-77
2021/07/08 04:50:34;;;;;;;5.05;4.32;;;17.40;99.90;;;;;;4804364;29;20062;-77
2021/07/08 04:53:01;;;;;;;5.72;4.07;;;17.40;99.90;;;;;;4787468;29;20059;-79
2021/07/08 04:55:27;;;;;;;6.93;3.95;;;17.30;99.90;;;;;;4805517;29;20042;-77
2021/07/08 04:57:55;;;;;;;6.03;4.07;;;17.40;99.90;;;;;;4756434;29;20042;-77
2021/07/08 05:00:22;;;;;;;4.50;3.95;;;17.40;99.90;;;;;;4788790;29;20507;-77
2021/07/08 05:02:51;;;;;;;5.63;4.22;;;17.50;99.90;;;;;;4786106;29;20039;-77
2021/07/08 05:05:18;;;;;;;5.20;3.97;;;17.50;99.90;;;;;;4807591;29;20042;-77
2021/07/08 05:07:45;;;;;;;4.95;4.13;;;17.60;99.90;;;;;;4789833;29;20076;-77
2021/07/08 05:10:13;;;;;;;4.28;3.88;;;17.70;99.90;;;;;;4791686;29;20042;-77
2021/07/08 05:12:40;;;;;;;7.15;4.47;;;17.70;99.90;;;;;;4776342;29;20053;-77
2021/07/08 05:15:09;;;;;;;6.15;4.65;;;17.80;99.90;;;;;;4787879;29;20464;-77
2021/07/08 05:17:36;;;;;;;6.18;4.97;;;17.90;99.90;;;;;;4791383;29;20077;-79
2021/07/08 05:20:04;;;;;;;5.70;4.47;;;18.00;99.90;;;;;;4804308;29;20046;-79
2021/07/08 05:22:35;;;;;;;5.60;4.97;;;18.00;99.90;;;;;;4800662;29;20031;-77
2021/07/08 05:25:03;;;;;;;6.50;4.53;;;18.10;99.90;;;;;;4804471;29;20186;-77
2021/07/08 05:27:31;;;;;;;5.43;4.55;;;18.10;99.90;;;;;;4788363;29;20507;-80
2021/07/08 05:29:57;;;;;;;5.28;4.78;;;18.20;99.90;;;;;;4768629;29;20055;-79
2021/07/08 05:32:24;;;;;;;8.20;5.70;;;18.30;99.90;;;;;;4787341;29;20042;-78
2021/07/08 05:34:50;;;;;;;7.70;6.20;;;18.40;99.80;;;;;;4789723;29;20490;-78
2021/07/08 05:37:17;;;;;;;6.15;5.55;;;18.50;99.90;;;;;;4786070;29;20497;-78
2021/07/08 05:39:43;;;;;;;7.20;6.07;;;18.50;99.90;;;;;;4788430;29;20057;-78
2021/07/08 05:42:09;;;;;;;7.53;6.13;;;18.60;99.80;;;;;;4769916;29;20101;-77
2021/07/08 05:44:36;;;;;;;9.02;5.43;;;18.70;99.80;;;;;;4803492;29;20038;-78
2021/07/08 05:47:02;;;;;;;8.10;6.25;;;18.90;99.70;;;;;;4802725;29;20396;-78
2021/07/08 05:49:29;;;;;;;10.25;6.80;;;18.90;99.60;;;;;;4772163;29;20061;-78
2021/07/08 05:51:55;;;;;;;9.88;7.47;;;19.10;99.50;;;;;;4787637;29;20055;-78
2021/07/08 05:54:22;;;;;;;10.02;7.63;;;19.20;99.30;;;;;;4769279;29;20061;-79
2021/07/08 05:56:49;;;;;;;11.35;8.05;;;19.40;99.00;;;;;;4786547;29;20050;-81
2021/07/08 05:59:16;;;;;;;9.57;7.03;;;19.60;98.70;;;;;;4784722;29;20046;-81
2021/07/08 06:01:42;;;;;;;8.98;6.65;;;19.70;98.60;;;;;;4767135;29;20385;-81
2021/07/08 06:04:09;;;;;;;10.18;7.30;;;19.90;98.50;;;;;;4788009;29;20043;-80
2021/07/08 06:06:35;;;;;;;10.05;7.30;;;20.20;98.30;;;;;;4782655;29;20047;-80
2021/07/08 06:09:02;;;;;;;8.50;7.03;;;20.60;97.90;;;;;;4781838;29;20039;-81
2021/07/08 06:11:28;;;;;;;9.05;6.97;;;21.00;97.30;;;;;;4782196;29;20042;-82
2021/07/08 06:13:55;;;;;;;9.02;6.75;;;21.40;96.70;;;;;;4784740;29;20055;-79
2021/07/08 06:16:21;;;;;;;11.00;7.57;;;21.60;96.20;;;;;;4784079;29;20047;-78
2021/07/08 06:18:47;;;;;;;11.95;7.25;;;21.80;95.60;;;;;;4781023;29;20042;-78
2021/07/08 06:21:14;;;;;;;7.18;6.47;;;21.80;95.30;;;;;;4778943;29;20633;-78
2021/07/08 06:23:41;;;;;;;8.05;6.53;;;22.00;95.10;;;;;;4791442;29;20038;-78
2021/07/08 06:26:07;;;;;;;5.90;5.40;;;22.20;94.80;;;;;;4770014;29;20062;-78
2021/07/08 06:28:34;;;;;;;7.82;6.80;;;22.60;94.50;;;;;;4781162;29;20062;-78
2021/07/08 06:31:01;;;;;;;10.10;7.68;;;22.90;93.80;;;;;;4769643;29;20070;-79
2021/07/08 06:33:28;;;;;;;7.50;6.72;;;23.10;93.20;;;;;;4782269;29;20063;-78
2021/07/08 06:35:54;;;;;;;7.03;5.65;;;23.20;92.80;;;;;;4773483;29;20158;-78
2021/07/08 06:38:21;;;;;;;5.93;5.22;;;23.30;92.70;;;;;;4801801;29;20046;-77
2021/07/08 06:40:49;;;;;;;5.75;4.60;;;23.40;92.60;;;;;;4785501;29;20047;-77
2021/07/08 06:43:15;;;;;;;6.72;5.53;;;23.40;92.70;;;;;;4761944;29;20415;-77
2021/07/08 06:45:42;;;;;;;5.68;4.78;;;23.30;92.40;;;;;;4771604;29;20062;-77
2021/07/08 06:48:12;;;;;;;6.05;4.38;;;23.20;92.60;;;;;;4754726;29;20375;-77
2021/07/08 06:50:39;;;;;;;4.13;3.67;;;23.20;92.80;;;;;;4767998;29;20035;-77
2021/07/08 06:53:06;;;;;;;4.10;3.55;;;23.20;92.60;;;;;;4803037;29;20563;-77
2021/07/08 06:55:34;;;;;;;6.00;4.15;;;23.20;92.60;;;;;;4803911;29;20042;-77
2021/07/08 06:58:00;;;;;;;6.88;3.97;;;23.30;92.50;;;;;;4787293;29;20538;-77
2021/07/08 07:00:29;;;;;;;6.53;4.95;;;23.40;92.20;;;;;;4763485;29;20510;-77
2021/07/08 07:02:58;;;;;;;6.72;3.70;;;23.50;92.40;;;;;;4800052;29;20372;-77
2021/07/08 07:05:25;;;;;;;5.72;4.80;;;23.50;91.90;;;;;;4785810;29;20043;-77
2021/07/08 07:07:53;;;;;;;5.45;3.60;;;23.50;91.60;;;;;;4802001;29;20046;-77
2021/07/08 07:10:21;;;;;;;4.90;4.30;;;23.50;91.60;;;;;;4769482;29;20049;-77
2021/07/08 07:12:49;;;;;;;6.38;5.13;;;23.60;91.60;;;;;;4799271;29;20051;-77
2021/07/08 07:15:17;;;;;;;9.30;6.07;;;23.70;91.30;;;;;;4784885;29;20051;-77
2021/07/08 07:17:47;;;;;;;7.05;5.00;;;23.70;90.80;;;;;;4785177;29;20051;-77
2021/07/08 07:20:16;;;;;;;4.85;3.75;;;23.80;90.80;;;;;;4800607;29;20282;-77
2021/07/08 07:22:47;;;;;;;5.75;4.00;;;23.90;90.60;;;;;;4798046;29;20031;-77
2021/07/08 07:25:22;;;;;;;6.95;4.85;;;23.90;90.50;;;;;;4801822;29;20070;-77
2021/07/08 07:27:50;;;;;;;6.30;5.03;;;24.10;90.30;;;;;;4784496;29;20050;-77
2021/07/08 07:30:18;;;;;;;4.97;4.38;;;24.20;90.10;;;;;;4784160;29;20039;-79
2021/07/08 07:32:45;;;;;;;7.75;5.50;;;24.20;90.00;;;;;;4771735;29;20065;-78
2021/07/08 07:35:12;;;;;;;7.85;5.20;;;24.30;89.30;;;;;;4783283;29;20054;-79
2021/07/08 07:37:39;;;;;;;6.93;5.88;;;24.40;89.00;;;;;;4784539;29;20400;-78
2021/07/08 07:40:08;;;;;;;6.45;4.78;;;24.50;88.00;;;;;;4796646;29;20064;-79
2021/07/08 07:42:34;;;;;;;5.80;4.10;;;24.60;87.60;;;;;;4783596;29;20039;-79
2021/07/08 07:45:05;;;;;;;9.95;5.18;;;24.70;87.40;;;;;;4806843;29;20039;-79
2021/07/08 07:47:32;;;;;;;4.25;3.85;;;24.70;86.80;;;;;;4802407;29;20492;-79
2021/07/08 07:49:59;;;;;;;9.40;4.65;;;24.90;86.40;;;;;;4769444;29;20153;-82
2021/07/08 07:52:26;;;;;;;5.03;4.50;;;25.00;85.40;;;;;;4797994;29;20549;-80
2021/07/08 07:54:53;;;;;;;6.20;3.97;;;25.10;84.90;;;;;;4800412;29;20043;-81
2021/07/08 07:57:20;;;;;;;6.60;4.75;;;25.20;84.90;;;;;;4770491;29;20043;-80
2021/07/08 07:59:46;;;;;;;7.00;4.60;;;25.40;83.70;;;;;;4784123;29;20047;-80
2021/07/08 08:02:13;;;;;;;5.20;3.47;;;25.30;83.10;;;;;;4773034;29;20066;-79
2021/07/08 08:04:43;;;;;;;5.90;3.03;;;25.40;83.50;;;;;;4784635;29;20039;-80
2021/07/08 08:09:57;;;;;;;8.30;5.65;;;25.40;82.00;;;;;;4808001;29;20046;-80
2021/07/08 08:12:24;;;;;;;4.72;3.50;;;25.40;81.50;;;;;;4807107;29;20081;-79
2021/07/08 08:14:51;;;;;;;6.70;3.17;;;25.30;82.20;;;;;;4793224;29;20050;-80
2021/07/08 08:17:17;;;;;;;4.38;3.40;;;25.30;82.40;;;;;;4808665;29;20042;-79
2021/07/08 08:19:43;;;;;;;5.18;3.50;;;25.40;82.30;;;;;;4812415;29;20050;-80
2021/07/08 08:22:11;;;;;;;5.70;3.53;;;25.50;82.00;;;;;;4804185;29;20038;-80
2021/07/08 08:24:39;;;;;;;9.13;3.35;;;25.40;81.60;;;;;;4807105;29;20058;-78
2021/07/08 08:27:05;;;;;;;4.63;2.90;;;25.30;82.00;;;;;;4775581;29;20403;-80
2021/07/08 08:29:33;;;;;;;6.35;2.60;;;25.30;82.00;;;;;;4790460;29;20495;-80
2021/07/08 08:32:00;;;;;;;4.47;2.50;;;25.40;82.00;;;;;;4788054;29;20043;-80
2021/07/08 08:34:26;;;;;;;4.45;2.60;;;25.60;81.40;;;;;;4788593;29;20407;-80
2021/07/08 08:36:53;;;;;;;5.13;2.85;;;25.80;80.60;;;;;;4757710;29;20055;-80
2021/07/08 08:39:19;;;;;;;7.03;2.75;;;26.00;80.10;;;;;;4772717;29;20051;-80
2021/07/08 08:41:45;;;;;;;4.28;2.70;;;26.10;79.40;;;;;;4789306;29;20043;-80
2021/07/08 08:44:12;;;;;;;2.58;1.65;;;26.10;78.80;;;;;;4755911;29;20403;-80
2021/07/08 08:46:38;;;;;;;4.07;1.83;;;26.20;78.90;;;;;;4775209;29;20050;-80
2021/07/08 08:49:06;;;;;;;5.35;2.40;;;26.20;78.40;;;;;;4804257;29;20047;-80
2021/07/08 08:51:32;;;;;;;2.88;1.33;;;26.30;78.50;;;;;;4802160;29;20043;-80
2021/07/08 08:53:59;;;;;;;4.60;1.90;;;26.30;77.70;;;;;;4773588;29;20057;-80
2021/07/08 08:56:27;;;;;;;6.07;2.50;;;26.40;77.80;;;;;;4806349;29;20051;-80
2021/07/08 08:58:53;;;;;;;3.28;1.98;;;26.30;77.40;;;;;;4786671;29;20399;-80
2021/07/08 09:01:20;;;;;;;5.47;1.77;;;26.30;77.00;;;;;;4770524;29;20054;-80
2021/07/08 09:03:47;;;;;;;3.63;1.55;;;26.30;76.60;;;;;;4787490;29;20039;-79
2021/07/08 09:06:15;;;;;;;4.90;1.83;;;26.30;75.90;;;;;;4771640;29;20091;-80
2021/07/08 09:08:45;;;;;;;5.00;1.80;;;26.40;75.80;;;;;;4802290;29;20414;-80
2021/07/08 09:11:18;;;;;;;3.38;1.50;;;26.50;75.50;;;;;;4786611;29;20038;-79
2021/07/08 09:14:05;;;;;;;4.88;1.83;;;26.70;75.80;;;;;;4802510;29;20034;-79
2021/07/08 09:16:40;;;;;;;3.72;1.83;;;26.90;74.80;;;;;;4770670;29;20077;-80
2021/07/08 09:19:09;;;;;;;4.10;1.90;;;27.10;74.70;;;;;;4799822;29;20038;-79
2021/07/08 09:21:47;;;;;;;4.40;1.95;;;27.20;74.00;;;;;;4802680;29;20529;-80
2021/07/08 09:24:29;;;;;;;4.57;2.00;;;27.20;74.10;;;;;;4807611;29;20050;-80
2021/07/08 09:27:07;;;;;;;3.67;2.08;;;27.20;73.60;;;;;;4800763;29;20050;-79
2021/07/08 09:29:34;;;;;;;4.72;1.55;;;27.20;72.30;;;;;;4800911;29;20586;-80
2021/07/08 09:32:05;;;;;;;3.60;2.08;;;27.00;72.50;;;;;;4782842;29;20106;-79
2021/07/08 09:34:34;;;;;;;4.22;1.98;;;26.90;72.40;;;;;;4802114;29;20821;-79
2021/07/08 09:37:08;;;;;;;3.40;1.92;;;26.80;72.50;;;;;;4783308;29;20414;-79
2021/07/08 09:39:37;;;;;;;2.95;1.30;;;26.60;72.40;;;;;;4768627;29;20391;-79
2021/07/08 09:42:04;;;;;;;4.20;1.65;;;26.60;73.00;;;;;;4780630;29;20054;-79
2021/07/08 09:44:31;;;;;;;5.18;1.45;;;26.50;73.00;;;;;;4801715;29;20034;-79
2021/07/08 09:46:58;;;;;;;3.65;1.20;;;26.50;73.20;;;;;;4784400;29;20054;-79
2021/07/08 09:49:27;;;;;;;3.92;1.65;;;26.40;72.80;;;;;;4804136;29;20034;-79
2021/07/08 09:51:54;;;;;;;2.03;1.20;;;26.30;72.80;;;;;;4772667;29;20054;-79
2021/07/08 09:54:48;;;;;;;2.50;1.38;;;26.40;73.30;;;;;;4803497;29;20042;-80
2021/07/08 09:57:42;;;;;;;4.43;2.10;;;26.50;73.00;;;;;;4786810;29;20086;-80
2021/07/08 10:00:29;;;;;;;4.55;1.50;;;26.60;72.10;;;;;;4796792;29;20045;-80
2021/07/08 10:02:56;;;;;;;3.45;1.27;;;26.90;71.60;;;;;;4799820;29;20049;-80
2021/07/08 10:05:25;;;;;;;2.95;1.50;;;27.40;71.00;;;;;;4769097;29;20431;-79
2021/07/08 10:07:52;;;;;;;4.32;1.20;;;28.00;70.70;;;;;;4808433;29;20043;-80
2021/07/08 10:10:19;;;;;;;3.22;1.15;;;28.30;68.60;;;;;;4797911;29;20039;-80
2021/07/08 10:12:46;;;;;;;2.28;1.20;;;28.60;66.70;;;;;;4799631;29;20429;-79
2021/07/08 10:15:15;;;;;;;4.07;1.10;;;28.40;65.70;;;;;;4784171;29;20126;-80
2021/07/08 10:17:42;;;;;;;3.72;1.30;;;28.20;66.10;;;;;;4811165;29;20065;-76
2021/07/08 10:20:11;;;;;;;2.72;1.48;;;28.10;66.60;;;;;;4791810;29;20047;-76
2021/07/08 10:22:38;;;;;;;2.55;1.20;;;28.00;65.40;;;;;;4798672;29;20043;-76
2021/07/08 10:25:10;;;;;;;5.75;1.55;;;27.70;67.10;;;;;;4805868;29;20051;-77
2021/07/08 10:27:38;;;;;;;3.20;1.52;;;27.50;67.70;;;;;;4787923;29;20144;-76
2021/07/08 10:30:05;;;;;;;7.40;1.77;;;27.20;68.10;;;;;;4771764;29;20152;-77
2021/07/08 10:32:33;;;;;;;3.40;1.42;;;27.00;68.40;;;;;;4764207;29;20057;-77
2021/07/08 10:35:00;;;;;;;3.45;1.20;;;26.90;68.80;;;;;;4790166;29;20550;-76
2021/07/08 10:37:29;;;;;;;4.15;1.45;;;26.90;68.80;;;;;;4803120;29;20057;-77
2021/07/08 10:39:57;;;;;;;2.50;1.17;;;27.00;68.90;;;;;;4802474;29;20517;-77
2021/07/08 10:42:46;;;;;;;5.72;1.67;;;27.30;68.80;;;;;;4776416;29;20046;-76
2021/07/08 10:45:24;;;;;;;6.35;1.60;;;27.70;67.60;;;;;;4786025;29;20490;-76
2021/07/08 10:47:52;;;;;;;4.47;1.58;;;28.00;66.50;;;;;;4794200;29;20042;-76
2021/07/08 10:50:35;;;;;;;4.07;1.60;;;28.10;66.20;;;;;;4787866;29;20050;-77
2021/07/08 10:53:24;;;;;;;3.55;1.40;;;28.10;65.70;;;;;;4790139;29;20054;-77
2021/07/08 10:55:54;;;;;;;3.10;1.00;;;27.80;65.70;;;;;;4793226;29;20533;-77
2021/07/08 10:58:46;;;;;;;2.55;1.08;;;27.70;66.30;;;;;;4802209;29;20066;-77
2021/07/08 11:01:26;;;;;;;5.28;1.30;;;27.80;66.30;;;;;;4790770;29;20038;-77
2021/07/08 11:03:54;;;;;;;3.72;1.35;;;28.10;65.90;;;;;;4807333;29;20054;-77
2021/07/08 11:06:23;;;;;;;3.40;1.25;;;28.50;65.60;;;;;;4798947;29;20046;-77
2021/07/08 11:08:57;;;;;;;3.35;0.90;;;28.90;64.90;;;;;;4804970;29;20042;-77
2021/07/08 11:11:24;;;;;;;4.32;1.00;;;29.40;64.10;;;;;;4798594;29;20049;-77
2021/07/08 11:13:54;;;;;;;4.35;1.00;;;29.70;62.40;;;;;;4782204;29;20538;-77
2021/07/08 11:16:40;;;;;;;2.90;0.82;;;29.70;61.20;;;;;;4788206;29;20426;-77
2021/07/08 11:19:07;;;;;;;3.10;1.17;;;29.70;60.80;;;;;;4786518;29;20051;-77
2021/07/08 11:21:53;;;;;;;2.67;1.05;;;29.70;60.60;;;;;;4772110;29;20368;-77
2021/07/08 11:24:24;;;;;;;4.70;1.00;;;30.10;60.60;;;;;;4770823;29;20050;-76
2021/07/08 11:26:54;;;;;;;3.08;1.05;;;30.20;59.90;;;;;;4773945;29;20053;-77
2021/07/08 11:29:37;;;;;;;3.97;1.15;;;30.10;59.80;;;;;;4798523;29;20031;-77
2021/07/08 11:32:28;;;;;;;5.43;1.30;;;29.90;59.40;;;;;;4789983;29;20051;-77
2021/07/08 11:35:10;;;;;;;2.10;0.90;;;29.50;59.40;;;;;;4776944;29;20533;-77
2021/07/08 11:37:42;;;;;;;6.05;0.90;;;29.20;59.50;;;;;;4791876;29;20069;-77
2021/07/08 11:40:15;;;;;;;2.60;0.90;;;29.10;60.20;;;;;;4803821;29;20808;-77
2021/07/08 11:42:44;;;;;;;3.28;0.85;;;29.00;60.20;;;;;;4773480;29;20058;-77
2021/07/08 11:45:13;;;;;;;6.05;1.13;;;28.90;60.40;;;;;;4785893;29;20050;-77
2021/07/08 11:47:59;;;;;;;4.70;0.90;;;28.90;60.30;;;;;;4801719;29;20049;-77
2021/07/08 11:50:28;;;;;;;2.47;0.70;;;29.00;60.00;;;;;;4800055;29;20510;-77
2021/07/08 11:53:14;;;;;;;3.25;0.90;;;29.30;59.80;;;;;;4808249;29;20053;-77
2021/07/08 11:55:54;;;;;;;3.17;0.90;;;29.70;58.80;;;;;;4774529;29;20061;-77
2021/07/08 11:58:39;;;;;;;2.58;0.77;;;30.20;57.90;;;;;;4788628;29;20046;-77
2021/07/08 12:01:13;;;;;;;2.00;0.80;;;30.80;56.80;;;;;;4769651;29;20047;-77
2021/07/08 12:03:47;;;;;;;4.13;1.00;;;31.00;56.00;;;;;;4792427;29;20795;-77
2021/07/08 12:06:19;;;;;;;2.75;0.90;;;30.90;55.90;;;;;;4802227;29;20046;-77
2021/07/08 12:09:00;;;;;;;2.67;0.70;;;30.70;55.50;;;;;;4788066;29;20066;-77
2021/07/08 12:11:49;;;;;;;2.13;0.60;;;30.30;55.60;;;;;;4804385;29;20038;-77
2021/07/08 12:14:16;;;;;;;4.65;0.98;;;30.00;56.10;;;;;;4785791;29;20787;-76
2021/07/08 12:16:48;;;;;;;2.83;0.90;;;29.90;56.80;;;;;;4806083;29;20402;-76
2021/07/08 12:19:14;;;;;;;;;;;29.80;56.20;;;;;;4772970;29;20647;-76
2021/07/08 12:21:43;;;;;;;2.33;0.95;;;29.70;56.30;;;;;;4803910;29;20404;-78
2021/07/08 12:24:23;;;;;;;3.25;0.90;;;29.50;56.10;;;;;;4770868;29;20062;-77
2021/07/08 12:26:50;;;;;;;2.55;0.75;;;29.30;56.00;;;;;;4784827;29;20534;-77
2021/07/08 12:29:37;;;;;;;2.58;0.80;;;29.10;56.70;;;;;;4783798;29;20051;-77
2021/07/08 12:32:20;;;;;;;2.67;0.80;;;29.10;57.50;;;;;;4806908;29;20415;-77
2021/07/08 12:34:58;;;;;;;4.13;1.00;;;29.00;57.40;;;;;;4793840;29;20047;-77
2021/07/08 12:37:33;;;;;;;4.82;0.80;;;28.90;57.70;;;;;;4773596;29;20479;-77
2021/07/08 12:39:59;;;;;;;2.25;0.80;;;28.90;58.50;;;;;;4785222;29;20050;-77
2021/07/08 12:42:34;;;;;;;2.50;0.98;;;28.80;58.40;;;;;;4786098;29;20046;-77
2021/07/08 12:45:07;;;;;;;1.98;0.90;;;28.80;58.50;;;;;;4770201;29;20044;-77
2021/07/08 12:47:35;;;;;;;3.83;0.88;;;28.70;58.20;;;;;;4800556;29;20046;-76
2021/07/08 12:50:03;;;;;;;1.73;0.82;;;28.70;58.20;;;;;;4800761;29;20043;-77
2021/07/08 12:52:31;;;;;;;2.00;0.70;;;28.90;58.40;;;;;;4784133;29;20046;-77
2021/07/08 12:54:57;;;;;;;4.22;1.23;;;29.00;58.30;;;;;;4770131;29;20479;-77
2021/07/08 12:57:24;;;;;;;3.25;1.00;;;29.00;58.00;;;;;;4785092;29;20045;-77
2021/07/08 12:59:53;;;;;;;4.50;1.00;;;28.90;57.80;;;;;;4783621;29;20039;-77